Time;durP1;ratioP1;P1;durP2;ratioP2;P2;SDS_P1;SDS_P2;PMS_P1;PMS_P2;Temp;Humidity;BMP_temperature;BMP_pressure;BME280_temperature;BME280_humidity;BME280_pressure;Samples;Min_cycle;Max_cycle;Signal;HPM_P1;HPM_P2
2021/04/07 00:00:28;;;;;;;19.52;4.55;;;;;;;;;;4998487;28;20029;-82
2021/04/07 00:02:55;;;;;;;20.02;4.82;;;;;;;;;;4978293;28;20045;-82
2021/04/07 00:05:31;;;;;;;14.38;4.20;;;;;;;;;;4980535;28;20713;-82
2021/04/07 00:08:01;;;;;;;16.75;4.05;;;;;;;;;;4982044;28;20045;-81
2021/04/07 00:10:32;;;;;;;22.25;4.75;;;;;;;;;;4993663;28;20061;-83
2021/04/07 00:13:00;;;;;;;17.23;4.18;;;;;;;;;;4977499;28;20112;-81
2021/04/07 00:15:38;;;;;;;12.98;4.05;;;;;;;;;;5005949;28;20033;-81
2021/04/07 00:18:06;;;;;;;22.08;4.80;;;;;;;;;;4985854;28;20068;-80
2021/04/07 00:20:33;;;;;;;21.83;4.32;;;;;;;;;;4999052;28;20033;-82
2021/04/07 00:23:00;;;;;;;18.52;4.63;;;;;;;;;;5001147;28;21222;-81
2021/04/07 00:25:27;;;;;;;15.30;4.32;;;;;;;;;;5002083;28;20042;-81
2021/04/07 00:27:57;;;;;;;18.48;4.03;;;;;;;;;;4995565;28;20044;-81
2021/04/07 00:30:25;;;;;;;17.17;4.20;;;;;;;;;;5014663;28;20054;-80
2021/04/07 00:32:53;;;;;;;18.70;4.57;;;;;;;;;;4999959;28;20859;-81
2021/04/07 00:35:23;;;;;;;21.88;4.47;;;;;;;;;;4951025;28;20050;-81
2021/04/07 00:37:52;;;;;;;16.42;3.90;;;;;;;;;;4985171;28;20041;-81
2021/04/07 00:40:20;;;;;;;22.13;4.53;;;;;;;;;;4974959;28;20114;-82
2021/04/07 00:42:53;;;;;;;19.17;4.40;;;;;;;;;;4974235;28;20522;-81
2021/04/07 00:45:22;;;;;;;15.27;4.05;;;;;;;;;;4971211;28;20123;-81
2021/04/07 00:47:54;;;;;;;18.65;4.40;;;;;;;;;;4984782;28;20047;-80
2021/04/07 00:50:22;;;;;;;17.00;4.38;;;;;;;;;;4992133;28;20034;-81
2021/04/07 00:52:50;;;;;;;19.75;3.60;;;;;;;;;;4982884;28;20041;-82
2021/04/07 00:55:18;;;;;;;17.35;4.00;;;;;;;;;;4985602;28;20048;-81
2021/04/07 00:57:48;;;;;;;15.07;3.72;;;;;;;;;;4995720;28;20041;-81
2021/04/07 01:00:17;;;;;;;16.33;4.05;;;;;;;;;;4967584;28;20038;-80
2021/04/07 01:02:45;;;;;;;13.57;3.22;;;;;;;;;;4994825;28;20142;-81
2021/04/07 01:05:14;;;;;;;15.90;3.75;;;;;;;;;;4986684;28;20084;-81
2021/04/07 01:07:42;;;;;;;18.67;3.92;;;;;;;;;;4995196;28;20040;-81
2021/04/07 01:10:12;;;;;;;17.15;4.13;;;;;;;;;;4988303;28;20476;-81
2021/04/07 01:12:44;;;;;;;20.30;3.50;;;;;;;;;;5012437;28;20080;-81
2021/04/07 01:15:13;;;;;;;15.65;3.65;;;;;;;;;;4991470;28;20091;-82
2021/04/07 01:17:44;;;;;;;17.90;3.58;;;;;;;;;;4987504;28;20049;-81
2021/04/07 01:20:23;;;;;;;14.25;3.40;;;;;;;;;;4967904;28;20046;-80
2021/04/07 01:23:02;;;;;;;17.02;3.72;;;;;;;;;;4979811;28;20070;-81
2021/04/07 01:25:29;;;;;;;15.10;3.10;;;;;;;;;;4982795;28;20098;-80
2021/04/07 01:27:57;;;;;;;16.98;3.72;;;;;;;;;;4967218;28;20873;-80
2021/04/07 01:30:27;;;;;;;14.35;3.40;;;;;;;;;;4978774;28;20175;-80
2021/04/07 01:32:55;;;;;;;20.77;4.30;;;;;;;;;;4988822;28;20136;-81
2021/04/07 01:35:23;;;;;;;18.48;3.60;;;;;;;;;;4966664;28;20048;-80
2021/04/07 01:37:50;;;;;;;17.58;3.88;;;;;;;;;;4989473;28;21101;-80
2021/04/07 01:40:19;;;;;;;16.13;3.53;;;;;;;;;;4978974;28;20091;-80
2021/04/07 01:42:47;;;;;;;14.73;3.83;;;;;;;;;;4984514;28;20030;-81
2021/04/07 01:45:16;;;;;;;20.15;3.47;;;;;;;;;;4973705;28;20093;-82
2021/04/07 01:47:44;;;;;;;13.75;2.70;;;;;;;;;;4983951;28;20846;-81
2021/04/07 01:50:11;;;;;;;17.35;3.67;;;;;;;;;;4986877;28;20045;-80
2021/04/07 01:52:37;;;;;;;17.70;3.15;;;;;;;;;;4980984;28;20038;-82
2021/04/07 01:55:07;;;;;;;18.50;3.47;;;;;;;;;;4982184;28;20032;-81
2021/04/07 01:57:40;;;;;;;11.88;2.65;;;;;;;;;;4983891;28;20021;-80
2021/04/07 02:00:08;;;;;;;14.98;3.30;;;;;;;;;;4988208;28;20509;-82
2021/04/07 02:02:35;;;;;;;12.63;2.65;;;;;;;;;;4999604;28;20152;-81
2021/04/07 02:05:01;;;;;;;;;;;;;;;;;;4993383;28;20030;-81
2021/04/07 02:07:27;;;;;;;10.15;2.15;;;;;;;;;;4993080;28;19917;-82
2021/04/07 02:09:55;;;;;;;13.88;2.75;;;;;;;;;;4999393;28;20034;-80
2021/04/07 02:12:22;;;;;;;14.57;2.78;;;;;;;;;;4994183;28;20638;-81
2021/04/07 02:14:48;;;;;;;14.50;2.80;;;;;;;;;;5007481;28;20762;-80
2021/04/07 02:17:16;;;;;;;14.70;2.70;;;;;;;;;;4992092;28;20029;-81
2021/04/07 02:19:43;;;;;;;14.60;2.80;;;;;;;;;;4996737;28;20029;-81
2021/04/07 02:22:09;;;;;;;;;;;;;;;;;;4994282;28;20076;-83
2021/04/07 02:24:40;;;;;;;18.20;2.90;;;;;;;;;;5000726;28;20108;-81
2021/04/07 02:27:15;;;;;;;13.70;2.22;;;;;;;;;;4999601;28;20864;-80
2021/04/07 02:29:43;;;;;;;13.05;2.78;;;;;;;;;;4996475;28;20030;-81
2021/04/07 02:32:09;;;;;;;16.45;3.05;;;;;;;;;;4992913;28;20124;-80
2021/04/07 02:34:36;;;;;;;17.20;3.20;;;;;;;;;;4997416;28;20087;-82
2021/04/07 02:37:05;;;;;;;13.82;2.85;;;;;;;;;;4992185;28;20038;-81
2021/04/07 02:39:32;;;;;;;15.68;3.05;;;;;;;;;;4982817;28;20025;-81
2021/04/07 02:41:59;;;;;;;18.55;2.80;;;;;;;;;;4998041;28;20036;-81
2021/04/07 02:44:26;;;;;;;14.05;3.00;;;;;;;;;;4992179;28;20046;-82
2021/04/07 02:46:52;;;;;;;14.73;2.80;;;;;;;;;;4981069;28;20115;-81
2021/04/07 02:49:18;;;;;;;;;;;;;;;;;;4982161;28;20045;-81
2021/04/07 02:51:45;;;;;;;13.05;2.75;;;;;;;;;;4996014;28;19920;-81
2021/04/07 02:54:12;;;;;;;17.60;3.03;;;;;;;;;;4994834;28;20032;-82
2021/04/07 02:56:40;;;;;;;13.27;2.63;;;;;;;;;;4996806;28;20029;-81
2021/04/07 02:59:07;;;;;;;17.50;2.85;;;;;;;;;;4977701;28;20186;-83
2021/04/07 03:01:34;;;;;;;15.00;2.92;;;;;;;;;;4994572;28;20033;-82
2021/04/07 03:04:00;;;;;;;15.07;2.88;;;;;;;;;;4994896;28;20542;-81
2021/04/07 03:06:27;;;;;;;15.35;2.70;;;;;;;;;;5018631;28;20026;-82
2021/04/07 03:08:55;;;;;;;14.52;2.65;;;;;;;;;;4998733;28;20043;-81
2021/04/07 03:11:22;;;;;;;17.13;3.05;;;;;;;;;;4981323;28;20123;-82
2021/04/07 03:13:49;;;;;;;13.70;2.92;;;;;;;;;;4999755;28;20034;-82
2021/04/07 03:16:17;;;;;;;13.55;2.83;;;;;;;;;;4973505;28;20788;-82
2021/04/07 03:18:45;;;;;;;14.50;3.30;;;;;;;;;;4989409;28;20091;-82
2021/04/07 03:21:12;;;;;;;12.43;2.67;;;;;;;;;;4992036;28;20037;-81
2021/04/07 03:23:39;;;;;;;12.38;2.70;;;;;;;;;;4962967;28;20057;-82
2021/04/07 03:26:07;;;;;;;11.32;2.70;;;;;;;;;;4985216;28;20037;-83
2021/04/07 03:28:36;;;;;;;13.77;2.70;;;;;;;;;;4998429;28;20029;-82
2021/04/07 03:31:03;;;;;;;14.43;2.70;;;;;;;;;;4997765;28;20030;-81
2021/04/07 03:33:30;;;;;;;14.00;2.45;;;;;;;;;;4996674;28;20022;-82
2021/04/07 03:35:58;;;;;;;15.45;3.45;;;;;;;;;;4999036;28;20041;-82
2021/04/07 03:38:25;;;;;;;15.55;2.90;;;;;;;;;;4990844;28;20120;-81
2021/04/07 03:40:52;;;;;;;16.10;3.00;;;;;;;;;;4960703;28;20034;-82
2021/04/07 03:43:21;;;;;;;15.07;2.80;;;;;;;;;;4980579;28;20136;-82
2021/04/07 03:45:50;;;;;;;15.20;2.80;;;;;;;;;;4996142;28;20029;-83
2021/04/07 03:48:17;;;;;;;13.38;3.10;;;;;;;;;;4979177;28;20021;-82
2021/04/07 03:50:46;;;;;;;16.42;2.65;;;;;;;;;;4972447;28;20376;-82
2021/04/07 03:53:15;;;;;;;12.98;2.85;;;;;;;;;;4974259;28;20038;-82
2021/04/07 03:55:42;;;;;;;13.70;2.97;;;;;;;;;;4978676;28;20084;-82
2021/04/07 03:58:09;;;;;;;14.80;3.08;;;;;;;;;;4952230;28;20042;-82
2021/04/07 04:00:38;;;;;;;14.40;2.78;;;;;;;;;;4988961;28;20381;-82
2021/04/07 04:03:07;;;;;;;15.27;2.90;;;;;;;;;;4979399;28;20493;-81
2021/04/07 04:05:36;;;;;;;14.15;2.85;;;;;;;;;;4994490;28;20029;-82
2021/04/07 04:08:02;;;;;;;13.65;3.08;;;;;;;;;;4966460;28;20038;-82
2021/04/07 04:10:28;;;;;;;;;;;;;;;;;;4972578;28;20034;-82
2021/04/07 04:12:55;;;;;;;14.48;3.10;;;;;;;;;;4995213;28;19963;-83
2021/04/07 04:15:23;;;;;;;17.80;2.80;;;;;;;;;;4994033;28;20615;-82
2021/04/07 04:17:50;;;;;;;16.27;2.72;;;;;;;;;;4963785;28;20041;-83
2021/04/07 04:20:17;;;;;;;14.20;2.83;;;;;;;;;;4980552;28;20042;-82
2021/04/07 04:22:45;;;;;;;11.80;2.60;;;;;;;;;;4979139;28;20029;-82
2021/04/07 04:25:17;;;;;;;14.75;2.88;;;;;;;;;;4970024;28;20053;-83
2021/04/07 04:27:48;;;;;;;18.02;3.08;;;;;;;;;;4980759;28;20071;-83
2021/04/07 04:30:16;;;;;;;15.35;3.28;;;;;;;;;;4990157;28;20037;-82
2021/04/07 04:32:45;;;;;;;14.52;3.03;;;;;;;;;;4978910;28;20030;-83
2021/04/07 04:35:12;;;;;;;17.30;3.00;;;;;;;;;;5000762;28;20040;-82
2021/04/07 04:37:40;;;;;;;16.13;3.30;;;;;;;;;;5002857;28;20042;-82
2021/04/07 04:40:09;;;;;;;14.02;3.13;;;;;;;;;;4989560;28;20037;-82
2021/04/07 04:42:36;;;;;;;15.77;2.80;;;;;;;;;;5002455;28;20056;-82
2021/04/07 04:45:03;;;;;;;19.00;2.75;;;;;;;;;;4999044;28;20045;-83
2021/04/07 04:47:30;;;;;;;14.98;3.13;;;;;;;;;;5005623;28;20037;-82
2021/04/07 04:49:56;;;;;;;16.02;3.03;;;;;;;;;;4998111;28;20084;-82
2021/04/07 04:52:23;;;;;;;15.82;3.25;;;;;;;;;;4992128;28;20073;-83
2021/04/07 04:54:50;;;;;;;17.77;3.38;;;;;;;;;;4961361;28;20044;-83
2021/04/07 04:57:16;;;;;;;18.00;3.50;;;;;;;;;;4997542;28;20696;-83
2021/04/07 04:59:44;;;;;;;13.27;2.72;;;;;;;;;;4929461;28;20045;-82
2021/04/07 05:02:10;;;;;;;12.98;2.88;;;;;;;;;;5007227;28;20530;-83
2021/04/07 05:04:37;;;;;;;;;;;;;;;;;;4992816;28;20860;-83
2021/04/07 05:07:03;;;;;;;13.02;3.10;;;;;;;;;;4997936;28;19921;-83
2021/04/07 05:09:29;;;;;;;16.90;3.47;;;;;;;;;;5005322;28;20091;-83
2021/04/07 05:11:56;;;;;;;11.20;2.97;;;;;;;;;;4959607;28;20037;-82
2021/04/07 05:14:24;;;;;;;16.75;3.42;;;;;;;;;;4963459;28;20046;-83
2021/04/07 05:16:52;;;;;;;17.52;3.92;;;;;;;;;;5000151;28;20567;-83
2021/04/07 05:19:21;;;;;;;16.25;3.38;;;;;;;;;;4997240;28;20046;-82
2021/04/07 05:21:47;;;;;;;16.80;4.00;;;;;;;;;;5014771;28;20032;-84
2021/04/07 05:24:13;;;;;;;;;;;;;;;;;;4995458;28;20027;-83
2021/04/07 05:26:40;;;;;;;12.45;2.95;;;;;;;;;;4976603;28;20028;-82
2021/04/07 05:29:06;;;;;;;13.98;3.63;;;;;;;;;;4996543;28;20738;-84
2021/04/07 05:31:36;;;;;;;17.88;4.43;;;;;;;;;;5005047;28;20037;-84
2021/04/07 05:34:02;;;;;;;14.57;3.50;;;;;;;;;;4984503;28;20038;-84
2021/04/07 05:36:28;;;;;;;21.67;3.90;;;;;;;;;;4993276;28;20099;-84
2021/04/07 05:38:54;;;;;;;20.45;4.30;;;;;;;;;;4982490;28;20103;-83
2021/04/07 05:41:21;;;;;;;;;;;;;;;;;;4980470;28;20330;-83
2021/04/07 05:43:47;;;;;;;18.35;4.72;;;;;;;;;;5016113;28;19921;-83
2021/04/07 05:46:13;;;;;;;16.27;4.97;;;;;;;;;;4982442;28;20099;-83
2021/04/07 05:48:40;;;;;;;16.58;4.70;;;;;;;;;;5002862;28;20474;-84
2021/04/07 05:51:07;;;;;;;19.00;4.80;;;;;;;;;;4997613;28;20042;-84
2021/04/07 05:53:33;;;;;;;17.00;5.60;;;;;;;;;;4995570;28;20061;-83
2021/04/07 05:56:00;;;;;;;16.27;5.10;;;;;;;;;;4993978;28;20121;-83
2021/04/07 05:58:26;;;;;;;18.92;5.30;;;;;;;;;;4988701;28;20097;-84
2021/04/07 06:00:53;;;;;;;18.40;5.20;;;;;;;;;;5006264;28;20029;-83
2021/04/07 06:03:19;;;;;;;;;;;;;;;;;;5011523;28;21537;-83
2021/04/07 06:05:48;;;;;;;18.77;4.85;;;;;;;;;;5013760;28;20022;-83
2021/04/07 06:08:15;;;;;;;18.63;4.35;;;;;;;;;;4968464;28;20042;-80
2021/04/07 06:10:43;;;;;;;20.35;4.72;;;;;;;;;;4982607;28;20030;-81
2021/04/07 06:13:12;;;;;;;15.57;3.90;;;;;;;;;;4975780;28;20473;-80
2021/04/07 06:15:40;;;;;;;16.35;4.40;;;;;;;;;;4994867;28;20103;-80
2021/04/07 06:18:09;;;;;;;18.88;3.78;;;;;;;;;;4991599;28;20103;-81
2021/04/07 06:20:40;;;;;;;19.70;3.90;;;;;;;;;;4992788;28;20044;-80
2021/04/07 06:23:07;;;;;;;19.35;4.32;;;;;;;;;;4963249;28;20053;-83
2021/04/07 06:25:38;;;;;;;22.77;5.57;;;;;;;;;;5004728;28;20036;-86
2021/04/07 06:28:06;;;;;;;17.30;3.58;;;;;;;;;;5003931;28;20030;-86
2021/04/07 06:33:27;;;;;;;15.65;3.63;;;;;;;;;;4990952;28;20120;-80
2021/04/07 06:35:57;;;;;;;19.10;4.18;;;;;;;;;;4969546;28;20080;-79
2021/04/07 06:38:25;;;;;;;17.50;3.97;;;;;;;;;;4973450;28;20034;-78
2021/04/07 06:40:54;;;;;;;17.58;4.00;;;;;;;;;;4967433;28;20083;-79
2021/04/07 06:43:24;;;;;;;17.27;3.80;;;;;;;;;;4985850;28;21988;-78
2021/04/07 06:45:51;;;;;;;15.48;3.63;;;;;;;;;;4995590;28;20041;-79
2021/04/07 06:48:18;;;;;;;25.02;4.57;;;;;;;;;;4989099;28;20026;-80
2021/04/07 06:50:45;;;;;;;14.52;3.60;;;;;;;;;;4991582;28;20029;-79
2021/04/07 06:53:13;;;;;;;19.90;4.40;;;;;;;;;;4985924;28;20553;-79
2021/04/07 06:55:39;;;;;;;18.48;4.25;;;;;;;;;;4953622;28;20108;-79
2021/04/07 06:58:07;;;;;;;17.20;3.72;;;;;;;;;;4967653;28;20052;-79
2021/04/07 07:00:34;;;;;;;24.08;4.00;;;;;;;;;;4988105;28;20033;-79
2021/04/07 07:03:05;;;;;;;15.40;3.95;;;;;;;;;;4972365;28;20069;-79
2021/04/07 07:05:36;;;;;;;18.15;3.90;;;;;;;;;;4988659;28;20042;-79
2021/04/07 07:08:15;;;;;;;17.23;3.97;;;;;;;;;;4975480;28;20441;-80
2021/04/07 07:10:46;;;;;;;25.42;4.97;;;;;;;;;;4992390;28;20488;-81
2021/04/07 07:13:18;;;;;;;16.25;3.58;;;;;;;;;;4992816;28;20029;-81
2021/04/07 07:15:45;;;;;;;19.42;4.30;;;;;;;;;;4994853;28;20053;-81
2021/04/07 07:18:20;;;;;;;15.85;4.07;;;;;;;;;;4974714;28;20037;-81
2021/04/07 07:20:47;;;;;;;16.63;3.95;;;;;;;;;;4996466;28;20041;-80
2021/04/07 07:23:24;;;;;;;16.05;3.97;;;;;;;;;;4991610;28;20046;-79
2021/04/07 07:25:52;;;;;;;;;;;;;;;;;;4985835;28;20376;-80
2021/04/07 07:28:21;;;;;;;19.77;4.00;;;;;;;;;;5001502;28;19955;-80
2021/04/07 07:30:51;;;;;;;17.30;4.18;;;;;;;;;;4985848;28;20042;-80
2021/04/07 07:33:24;;;;;;;19.63;3.58;;;;;;;;;;4985406;28;20038;-79
2021/04/07 07:35:53;;;;;;;18.20;4.07;;;;;;;;;;4985537;28;20125;-80
2021/04/07 07:38:20;;;;;;;19.73;4.25;;;;;;;;;;4960600;28;20065;-80
2021/04/07 07:40:48;;;;;;;15.43;3.88;;;;;;;;;;4988067;28;20095;-80
2021/04/07 07:43:15;;;;;;;18.55;4.03;;;;;;;;;;4987142;28;20036;-80
2021/04/07 07:45:42;;;;;;;16.63;4.38;;;;;;;;;;4970260;28;20037;-80
2021/04/07 07:48:19;;;;;;;16.50;4.05;;;;;;;;;;4988750;28;20587;-80
2021/04/07 07:50:48;;;;;;;16.35;4.10;;;;;;;;;;4992622;28;20060;-80
2021/04/07 07:53:18;;;;;;;19.00;3.70;;;;;;;;;;4983471;28;20057;-80
2021/04/07 07:55:47;;;;;;;17.95;4.07;;;;;;;;;;4977097;28;20114;-80
2021/04/07 07:58:14;;;;;;;17.00;4.07;;;;;;;;;;4987061;28;20564;-80
2021/04/07 08:00:41;;;;;;;16.30;3.67;;;;;;;;;;5011682;28;20040;-81
2021/04/07 08:03:12;;;;;;;18.00;3.28;;;;;;;;;;4991079;28;20076;-80
2021/04/07 08:05:40;;;;;;;21.17;3.42;;;;;;;;;;4986601;28;20038;-81
2021/04/07 08:08:08;;;;;;;21.13;3.75;;;;;;;;;;4968746;28;20034;-80
2021/04/07 08:10:37;;;;;;;22.02;4.10;;;;;;;;;;5002545;28;20021;-81
2021/04/07 08:13:04;;;;;;;19.70;3.30;;;;;;;;;;4994668;28;20261;-80
2021/04/07 08:15:31;;;;;;;17.90;4.28;;;;;;;;;;4978634;28;20088;-81
2021/04/07 08:18:01;;;;;;;16.75;3.47;;;;;;;;;;4992137;28;20066;-80
2021/04/07 08:20:29;;;;;;;20.00;4.07;;;;;;;;;;4994439;28;20143;-80
2021/04/07 08:22:57;;;;;;;14.10;3.97;;;;;;;;;;4997483;28;20038;-80
2021/04/07 08:25:26;;;;;;;17.38;3.45;;;;;;;;;;4994256;28;20042;-82
2021/04/07 08:27:55;;;;;;;18.20;4.43;;;;;;;;;;4977888;28;20085;-81
2021/04/07 08:30:24;;;;;;;16.90;4.03;;;;;;;;;;4978239;28;20120;-83
2021/04/07 08:32:52;;;;;;;21.58;3.83;;;;;;;;;;4996129;28;20041;-84
2021/04/07 08:35:20;;;;;;;14.05;3.45;;;;;;;;;;4990476;28;20037;-83
2021/04/07 08:37:58;;;;;;;14.95;4.18;;;;;;;;;;4982671;28;20072;-84
2021/04/07 08:40:25;;;;;;;15.50;3.13;;;;;;;;;;4972181;28;20026;-82
2021/04/07 08:42:52;;;;;;;16.27;3.78;;;;;;;;;;4981792;28;20050;-80
2021/04/07 08:45:18;;;;;;;17.95;3.85;;;;;;;;;;4972978;28;20709;-81
2021/04/07 08:47:48;;;;;;;;;;;;;;;;;;4974885;28;20042;-80
2021/04/07 08:50:15;;;;;;;19.20;3.45;;;;;;;;;;4957888;28;19952;-80
2021/04/07 08:52:47;;;;;;;16.13;4.00;;;;;;;;;;4967085;28;20069;-81
2021/04/07 08:55:18;;;;;;;15.57;3.30;;;;;;;;;;4996683;28;20422;-81
2021/04/07 08:58:06;;;;;;;17.90;4.15;;;;;;;;;;4988605;28;20091;-80
2021/04/07 09:00:34;;;;;;;18.60;3.95;;;;;;;;;;4992365;28;20052;-78
2021/04/07 09:03:18;;;;;;;14.93;3.60;;;;;;;;;;4994582;28;20033;-79
2021/04/07 09:05:45;;;;;;;20.25;3.60;;;;;;;;;;4990813;28;20030;-80
2021/04/07 09:08:16;;;;;;;17.23;3.45;;;;;;;;;;4941863;28;20665;-80
2021/04/07 09:10:51;;;;;;;17.98;3.50;;;;;;;;;;4952711;28;20029;-79
2021/04/07 09:13:20;;;;;;;19.48;3.80;;;;;;;;;;4997509;28;20080;-80
2021/04/07 09:15:49;;;;;;;17.80;4.50;;;;;;;;;;4997593;28;20054;-80
2021/04/07 09:18:20;;;;;;;26.15;6.22;;;;;;;;;;4989662;28;20548;-79
2021/04/07 09:20:47;;;;;;;19.40;5.00;;;;;;;;;;4990633;28;20061;-79
2021/04/07 09:23:18;;;;;;;20.50;6.22;;;;;;;;;;4990593;28;20052;-79
2021/04/07 09:25:45;;;;;;;22.75;6.25;;;;;;;;;;4994533;28;20034;-79
2021/04/07 09:28:12;;;;;;;18.08;4.50;;;;;;;;;;4991904;28;20066;-79
2021/04/07 09:30:44;;;;;;;21.60;4.25;;;;;;;;;;4991095;28;20034;-79
2021/04/07 09:33:20;;;;;;;21.00;4.78;;;;;;;;;;4983941;28;20037;-79
2021/04/07 09:36:01;;;;;;;16.88;3.83;;;;;;;;;;4994355;28;20033;-79
2021/04/07 09:38:30;;;;;;;17.92;4.22;;;;;;;;;;4991725;28;20041;-79
2021/04/07 09:41:11;;;;;;;20.13;4.30;;;;;;;;;;4993462;28;20033;-79
2021/04/07 09:43:41;;;;;;;21.75;4.32;;;;;;;;;;4994564;28;20044;-79
2021/04/07 09:46:07;;;;;;;18.02;3.70;;;;;;;;;;4992862;28;20072;-79
2021/04/07 09:49:00;;;;;;;20.48;3.83;;;;;;;;;;4994038;28;20034;-79
2021/04/07 09:51:37;;;;;;;18.90;3.78;;;;;;;;;;5006280;28;20045;-79
2021/04/07 09:54:03;;;;;;;;;;;;;;;;;;4990087;28;20060;-79
2021/04/07 09:56:30;;;;;;;22.17;4.05;;;;;;;;;;4984501;28;19917;-78
2021/04/07 09:58:58;;;;;;;25.27;4.13;;;;;;;;;;4992306;28;20149;-78
2021/04/07 10:01:26;;;;;;;18.70;4.13;;;;;;;;;;4986573;28;20026;-81
2021/04/07 10:03:54;;;;;;;19.38;4.15;;;;;;;;;;4993980;28;20490;-80
2021/04/07 10:06:25;;;;;;;17.27;3.50;;;;;;;;;;4990583;28;20065;-80
2021/04/07 10:09:00;;;;;;;20.38;3.85;;;;;;;;;;4991663;28;20064;-80
2021/04/07 10:11:28;;;;;;;18.95;4.20;;;;;;;;;;4989709;28;20044;-80
2021/04/07 10:13:58;;;;;;;21.08;3.78;;;;;;;;;;4987685;28;20096;-79
2021/04/07 10:16:26;;;;;;;18.05;3.97;;;;;;;;;;4990292;28;20045;-79
2021/04/07 10:19:00;;;;;;;18.02;3.67;;;;;;;;;;4990397;28;20084;-79
2021/04/07 10:21:28;;;;;;;16.58;3.70;;;;;;;;;;4988746;28;20034;-79
2021/04/07 10:23:57;;;;;;;18.00;3.45;;;;;;;;;;4996027;28;20577;-78
2021/04/07 10:26:25;;;;;;;17.75;3.90;;;;;;;;;;4988699;28;20100;-78
2021/04/07 10:29:17;;;;;;;17.58;3.50;;;;;;;;;;5000174;28;20068;-79
2021/04/07 10:31:51;;;;;;;21.42;3.72;;;;;;;;;;5027630;28;20039;-79
2021/04/07 10:34:17;;;;;;;17.10;3.42;;;;;;;;;;5010499;28;20055;-78
2021/04/07 10:36:45;;;;;;;20.20;3.80;;;;;;;;;;5031925;28;20060;-79
2021/04/07 10:39:13;;;;;;;25.95;3.95;;;;;;;;;;4987241;28;20046;-79
2021/04/07 10:41:39;;;;;;;19.30;4.10;;;;;;;;;;5029535;28;20064;-79
2021/04/07 10:44:11;;;;;;;17.08;4.38;;;;;;;;;;4998939;28;20053;-79
2021/04/07 10:46:37;;;;;;;19.55;3.97;;;;;;;;;;5010814;28;20037;-80
2021/04/07 10:49:03;;;;;;;;;;;;;;;;;;5018637;28;20031;-80
2021/04/07 10:51:38;;;;;;;18.70;3.92;;;;;;;;;;5019688;28;20001;-84
2021/04/07 10:54:07;;;;;;;20.73;3.83;;;;;;;;;;4985807;28;20613;-83
2021/04/07 10:56:34;;;;;;;17.48;4.15;;;;;;;;;;5023762;28;20128;-83
2021/04/07 10:59:02;;;;;;;16.77;3.72;;;;;;;;;;5003994;28;20521;-83
2021/04/07 11:01:34;;;;;;;17.60;4.03;;;;;;;;;;4998779;28;20021;-83
2021/04/07 11:04:15;;;;;;;17.27;4.32;;;;;;;;;;4997775;28;20564;-83
2021/04/07 11:06:42;;;;;;;16.90;3.80;;;;;;;;;;4982172;28;20527;-84
2021/04/07 11:09:14;;;;;;;18.80;3.78;;;;;;;;;;4976683;28;20034;-83
2021/04/07 11:11:42;;;;;;;17.40;3.67;;;;;;;;;;4956153;28;20038;-83
2021/04/07 11:14:11;;;;;;;19.00;3.63;;;;;;;;;;4978529;28;20034;-83
2021/04/07 11:16:38;;;;;;;19.20;3.92;;;;;;;;;;5001466;28;20034;-83
2021/04/07 11:19:16;;;;;;;15.80;3.97;;;;;;;;;;4996302;28;20021;-79
2021/04/07 11:21:44;;;;;;;16.90;3.58;;;;;;;;;;4956865;28;20042;-80
2021/04/07 11:24:13;;;;;;;14.07;3.50;;;;;;;;;;4937752;28;20196;-79
2021/04/07 11:26:39;;;;;;;16.17;3.20;;;;;;;;;;4974394;28;20070;-79
2021/04/07 11:29:12;;;;;;;17.20;3.55;;;;;;;;;;4980057;28;20030;-79
2021/04/07 11:31:40;;;;;;;17.60;4.78;;;;;;;;;;4998495;28;20050;-82
2021/04/07 11:34:10;;;;;;;18.73;5.60;;;;;;;;;;4993231;28;20049;-82
2021/04/07 11:37:07;;;;;;;24.20;4.57;;;;;;;;;;5004046;28;20033;-83
2021/04/07 11:39:43;;;;;;;15.75;3.85;;;;;;;;;;5006248;28;20037;-83
2021/04/07 11:42:28;;;;;;;18.20;3.25;;;;;;;;;;4984584;28;20049;-83
2021/04/07 11:44:55;;;;;;;18.02;3.45;;;;;;;;;;4978143;28;20041;-79
2021/04/07 11:47:21;;;;;;;15.65;3.70;;;;;;;;;;4983825;28;20064;-79
2021/04/07 11:49:48;;;;;;;;;;;;;;;;;;4984183;28;20038;-79
2021/04/07 11:52:14;;;;;;;;;;;;;;;;;;4948660;28;20378;-79
2021/04/07 11:54:41;;;;;;;17.75;3.60;;;;;;;;;;4954101;28;19963;-81
2021/04/07 11:57:09;;;;;;;19.35;3.67;;;;;;;;;;4965507;28;20041;-80
2021/04/07 11:59:36;;;;;;;17.63;3.40;;;;;;;;;;4990529;28;20047;-78
2021/04/07 12:02:04;;;;;;;20.13;4.35;;;;;;;;;;4991109;28;20042;-79
2021/04/07 12:04:32;;;;;;;15.95;3.90;;;;;;;;;;5003605;28;20029;-80
2021/04/07 12:07:01;;;;;;;17.90;3.92;;;;;;;;;;4998391;28;20042;-79
2021/04/07 12:09:28;;;;;;;19.65;4.00;;;;;;;;;;4984136;28;20579;-80
2021/04/07 12:11:54;;;;;;;15.38;3.67;;;;;;;;;;5004856;28;20036;-79
2021/04/07 12:14:22;;;;;;;15.32;3.70;;;;;;;;;;4959024;28;20134;-80
2021/04/07 12:16:49;;;;;;;17.25;3.47;;;;;;;;;;4980091;28;20037;-81
2021/04/07 12:19:18;;;;;;;14.85;3.33;;;;;;;;;;4995960;28;20033;-80
2021/04/07 12:21:47;;;;;;;18.15;3.70;;;;;;;;;;5001267;28;20403;-81
2021/04/07 12:24:14;;;;;;;16.17;3.63;;;;;;;;;;4976770;28;20042;-82
2021/04/07 12:26:42;;;;;;;15.77;3.50;;;;;;;;;;4991884;28;20048;-79
2021/04/07 12:29:10;;;;;;;16.83;4.25;;;;;;;;;;4988364;28;20073;-85
2021/04/07 12:31:36;;;;;;;17.92;3.83;;;;;;;;;;5009558;28;20033;-85
2021/04/07 12:34:02;;;;;;;15.30;3.45;;;;;;;;;;5010209;28;20041;-82
2021/04/07 12:36:31;;;;;;;14.55;2.90;;;;;;;;;;5000101;28;20041;-85
2021/04/07 12:39:03;;;;;;;16.48;3.60;;;;;;;;;;5004927;28;20585;-85
2021/04/07 12:41:55;;;;;;;14.32;3.85;;;;;;;;;;5014554;28;20037;-87
2021/04/07 12:44:18;;;;;;;16.02;3.53;;;;;;;;;;5011029;28;20041;-87
2021/04/07 12:46:45;;;;;;;16.58;4.03;;;;;;;;;;5024285;28;20042;-87
2021/04/07 12:49:12;;;;;;;18.88;3.67;;;;;;;;;;5021446;28;20037;-86
2021/04/07 12:51:39;;;;;;;17.25;4.63;;;;;;;;;;5013980;28;20549;-86
2021/04/07 12:54:08;;;;;;;15.38;4.05;;;;;;;;;;4998517;28;20037;-85
2021/04/07 12:59:21;;;;;;;14.47;3.53;;;;;;;;;;5000996;28;21906;-85
2021/04/07 13:01:49;;;;;;;15.60;3.60;;;;;;;;;;4992234;28;20041;-84
2021/04/07 13:04:16;;;;;;;17.88;4.22;;;;;;;;;;4996919;28;20128;-83
2021/04/07 13:06:43;;;;;;;15.73;3.47;;;;;;;;;;4974590;28;20042;-85
2021/04/07 13:09:11;;;;;;;17.27;3.50;;;;;;;;;;4985087;28;20088;-81
2021/04/07 13:11:38;;;;;;;13.60;4.00;;;;;;;;;;4994033;28;20102;-81
2021/04/07 13:14:08;;;;;;;12.18;3.20;;;;;;;;;;4991783;28;20025;-81
2021/04/07 13:16:34;;;;;;;17.55;4.82;;;;;;;;;;5002740;28;20053;-80
2021/04/07 13:19:06;;;;;;;13.63;3.28;;;;;;;;;;4994124;28;20556;-82
2021/04/07 13:21:34;;;;;;;17.27;3.75;;;;;;;;;;4995380;28;20030;-80
2021/04/07 13:24:01;;;;;;;12.45;3.53;;;;;;;;;;4994056;28;20045;-80
2021/04/07 13:26:28;;;;;;;13.32;3.75;;;;;;;;;;5008064;28;20132;-81
2021/04/07 13:28:58;;;;;;;12.38;4.30;;;;;;;;;;4938578;28;20034;-81
2021/04/07 13:31:24;;;;;;;14.82;4.20;;;;;;;;;;5003400;28;20037;-81
2021/04/07 13:33:54;;;;;;;13.75;3.95;;;;;;;;;;4990381;28;20338;-81
2021/04/07 13:36:25;;;;;;;15.15;3.65;;;;;;;;;;4957283;28;22067;-82
2021/04/07 13:38:58;;;;;;;15.30;3.22;;;;;;;;;;4985872;28;20056;-82
2021/04/07 13:44:11;;;;;;;;;;;;;;;;;;4987173;28;20605;-82
2021/04/07 13:46:38;;;;;;;12.63;3.05;;;;;;;;;;4993267;28;20042;-82
2021/04/07 13:49:06;;;;;;;15.93;3.85;;;;;;;;;;4989394;28;20045;-81
2021/04/07 13:51:32;;;;;;;13.10;2.65;;;;;;;;;;4997986;28;20044;-82
2021/04/07 13:53:59;;;;;;;16.25;3.00;;;;;;;;;;4994457;28;20044;-81
2021/04/07 13:56:49;;;;;;;11.70;3.15;;;;;;;;;;4997825;28;20017;-82
2021/04/07 13:59:24;;;;;;;13.77;4.75;;;;;;;;;;4962712;28;20985;-81
2021/04/07 14:01:52;;;;;;;15.52;4.03;;;;;;;;;;4978849;28;20041;-82
2021/04/07 14:04:21;;;;;;;15.43;4.05;;;;;;;;;;4996124;28;20718;-82
2021/04/07 14:06:49;;;;;;;12.90;3.80;;;;;;;;;;5003059;28;20104;-82
2021/04/07 14:09:26;;;;;;;16.30;3.15;;;;;;;;;;4999238;28;21925;-82
2021/04/07 14:11:53;;;;;;;15.43;3.38;;;;;;;;;;5020145;28;20020;-82
2021/04/07 14:14:19;;;;;;;17.33;4.15;;;;;;;;;;5021617;28;20097;-83
2021/04/07 14:16:47;;;;;;;13.65;3.15;;;;;;;;;;5018391;28;20048;-82
2021/04/07 14:19:13;;;;;;;12.55;3.00;;;;;;;;;;5012643;28;20044;-83
2021/04/07 14:21:39;;;;;;;11.50;2.55;;;;;;;;;;4997107;28;20135;-82
2021/04/07 14:24:06;;;;;;;14.23;3.90;;;;;;;;;;4996698;28;20022;-83
2021/04/07 14:26:33;;;;;;;13.75;4.78;;;;;;;;;;5004117;28;20812;-83
2021/04/07 14:29:01;;;;;;;13.52;3.70;;;;;;;;;;5008476;28;20726;-83
2021/04/07 14:31:27;;;;;;;18.60;3.05;;;;;;;;;;4983250;28;20100;-83
2021/04/07 14:33:54;;;;;;;12.57;3.38;;;;;;;;;;4973276;28;20034;-80
2021/04/07 14:36:20;;;;;;;11.90;3.20;;;;;;;;;;4982604;28;21021;-82
2021/04/07 14:38:48;;;;;;;11.75;3.15;;;;;;;;;;5002082;28;20492;-82
2021/04/07 14:41:16;;;;;;;9.63;2.70;;;;;;;;;;4991932;28;20433;-80
2021/04/07 14:43:42;;;;;;;12.30;3.03;;;;;;;;;;4990609;28;20037;-80
2021/04/07 14:46:11;;;;;;;17.38;4.05;;;;;;;;;;4955954;28;20061;-81
2021/04/07 14:48:40;;;;;;;14.20;3.25;;;;;;;;;;4990070;28;20038;-81
2021/04/07 14:51:20;;;;;;;11.90;2.63;;;;;;;;;;4992180;28;20026;-83
2021/04/07 14:53:48;;;;;;;10.60;2.47;;;;;;;;;;4977012;28;20471;-80